Aviation Digital Data Service (ADDS)

Output produced by METARs form (0707 UTC 22 January 2021)
found at http://aviationweather.gov/metar/data/
 
LFLX 220700Z AUTO 22012KT 9999 BKN032 BKN180 OVC200 10/06 Q0991 TEMPO 4000 RA BECMG 33015KT
TAF LFLX 220500Z 2206/2312 21015G25KT 9999 BKN030 
     PROB40 
     TEMPO 2206/2208 22020G30KT 
     BECMG 2208/2210 33015KT 
     TEMPO 2208/2213 4000 RA SCT008 BKN015 
     BECMG 2217/2219 23010KT 
     BECMG 2303/2305 BKN014 
     PROB40 
     TEMPO 2305/2308 4000 -RASN